sensor_id;sensor_type;location;lat;lon;timestamp;temperature;humidity
81222;DHT22;70691;52.492;13.420;2023-07-29T00:00:41;20.70;71.40
81222;DHT22;70691;52.492;13.420;2023-07-29T00:03:08;20.70;71.40
81222;DHT22;70691;52.492;13.420;2023-07-29T00:05:34;20.70;71.50
81222;DHT22;70691;52.492;13.420;2023-07-29T00:07:59;20.60;71.50
81222;DHT22;70691;52.492;13.420;2023-07-29T00:10:25;20.60;71.50
81222;DHT22;70691;52.492;13.420;2023-07-29T00:12:51;20.60;71.60
81222;DHT22;70691;52.492;13.420;2023-07-29T00:15:17;20.50;71.60
81222;DHT22;70691;52.492;13.420;2023-07-29T00:17:42;20.50;71.60
81222;DHT22;70691;52.492;13.420;2023-07-29T00:20:08;20.50;71.70
81222;DHT22;70691;52.492;13.420;2023-07-29T00:22:34;20.50;71.60
81222;DHT22;70691;52.492;13.420;2023-07-29T00:24:59;20.50;71.70
81222;DHT22;70691;52.492;13.420;2023-07-29T00:27:25;20.40;71.80
81222;DHT22;70691;52.492;13.420;2023-07-29T00:29:51;20.40;71.90
81222;DHT22;70691;52.492;13.420;2023-07-29T00:32:17;20.50;71.90
81222;DHT22;70691;52.492;13.420;2023-07-29T00:34:43;20.40;71.90
81222;DHT22;70691;52.492;13.420;2023-07-29T00:37:09;20.30;72.00
81222;DHT22;70691;52.492;13.420;2023-07-29T00:39:36;20.30;71.90
81222;DHT22;70691;52.492;13.420;2023-07-29T00:42:05;20.40;72.00
81222;DHT22;70691;52.492;13.420;2023-07-29T00:44:33;20.30;72.10
81222;DHT22;70691;52.492;13.420;2023-07-29T00:47:02;20.30;72.10
81222;DHT22;70691;52.492;13.420;2023-07-29T00:49:28;20.30;72.30
81222;DHT22;70691;52.492;13.420;2023-07-29T00:51:54;20.30;72.20
81222;DHT22;70691;52.492;13.420;2023-07-29T00:54:20;20.20;72.20
81222;DHT22;70691;52.492;13.420;2023-07-29T00:56:45;20.20;72.30
81222;DHT22;70691;52.492;13.420;2023-07-29T00:59:11;20.20;72.40
81222;DHT22;70691;52.492;13.420;2023-07-29T01:01:37;20.20;72.30
81222;DHT22;70691;52.492;13.420;2023-07-29T01:04:04;20.20;72.40
81222;DHT22;70691;52.492;13.420;2023-07-29T01:15:23;20.20;72.20
81222;DHT22;70691;52.492;13.420;2023-07-29T01:17:59;20.10;72.10
81222;DHT22;70691;52.492;13.420;2023-07-29T01:20:29;20.10;72.10
81222;DHT22;70691;52.492;13.420;2023-07-29T01:22:57;20.00;72.30
81222;DHT22;70691;52.492;13.420;2023-07-29T01:25:23;20.00;72.40
81222;DHT22;70691;52.492;13.420;2023-07-29T01:27:49;20.00;72.60
81222;DHT22;70691;52.492;13.420;2023-07-29T01:30:17;20.00;72.40
81222;DHT22;70691;52.492;13.420;2023-07-29T01:35:36;19.90;72.40
81222;DHT22;70691;52.492;13.420;2023-07-29T01:38:09;19.90;72.40
81222;DHT22;70691;52.492;13.420;2023-07-29T01:40:37;19.90;72.60
81222;DHT22;70691;52.492;13.420;2023-07-29T01:43:03;19.90;72.70
81222;DHT22;70691;52.492;13.420;2023-07-29T01:45:29;19.90;72.60
81222;DHT22;70691;52.492;13.420;2023-07-29T01:47:57;19.90;72.60
81222;DHT22;70691;52.492;13.420;2023-07-29T01:50:23;19.90;72.40
81222;DHT22;70691;52.492;13.420;2023-07-29T01:52:48;19.90;72.30
81222;DHT22;70691;52.492;13.420;2023-07-29T01:55:14;19.90;72.40
81222;DHT22;70691;52.492;13.420;2023-07-29T01:57:39;19.90;72.50
81222;DHT22;70691;52.492;13.420;2023-07-29T02:00:06;19.80;72.40
81222;DHT22;70691;52.492;13.420;2023-07-29T02:02:32;19.90;72.40
81222;DHT22;70691;52.492;13.420;2023-07-29T02:04:57;19.80;72.50
81222;DHT22;70691;52.492;13.420;2023-07-29T02:07:23;19.80;72.60
81222;DHT22;70691;52.492;13.420;2023-07-29T02:09:51;19.80;72.80
81222;DHT22;70691;52.492;13.420;2023-07-29T02:12:17;19.80;72.80
81222;DHT22;70691;52.492;13.420;2023-07-29T02:14:43;19.80;72.70
81222;DHT22;70691;52.492;13.420;2023-07-29T02:17:08;19.80;72.80
81222;DHT22;70691;52.492;13.420;2023-07-29T02:19:34;19.80;72.70
81222;DHT22;70691;52.492;13.420;2023-07-29T02:22:00;19.80;72.70
81222;DHT22;70691;52.492;13.420;2023-07-29T02:24:26;19.80;72.70
81222;DHT22;70691;52.492;13.420;2023-07-29T02:26:51;19.80;72.50
81222;DHT22;70691;52.492;13.420;2023-07-29T02:29:17;19.80;72.50
81222;DHT22;70691;52.492;13.420;2023-07-29T02:31:43;19.80;72.40
81222;DHT22;70691;52.492;13.420;2023-07-29T02:34:09;19.70;72.20
81222;DHT22;70691;52.492;13.420;2023-07-29T02:36:35;19.80;72.40
81222;DHT22;70691;52.492;13.420;2023-07-29T02:39:00;19.80;72.20
81222;DHT22;70691;52.492;13.420;2023-07-29T02:41:26;19.70;72.10
81222;DHT22;70691;52.492;13.420;2023-07-29T02:43:52;19.70;72.20
81222;DHT22;70691;52.492;13.420;2023-07-29T02:46:17;19.80;72.30
81222;DHT22;70691;52.492;13.420;2023-07-29T02:48:44;19.80;72.20
81222;DHT22;70691;52.492;13.420;2023-07-29T02:51:10;19.90;71.90
81222;DHT22;70691;52.492;13.420;2023-07-29T02:53:36;19.80;72.10
81222;DHT22;70691;52.492;13.420;2023-07-29T02:56:04;19.70;72.30
81222;DHT22;70691;52.492;13.420;2023-07-29T02:58:31;19.70;72.30
81222;DHT22;70691;52.492;13.420;2023-07-29T03:01:01;19.70;72.20
81222;DHT22;70691;52.492;13.420;2023-07-29T03:03:31;19.80;72.10
81222;DHT22;70691;52.492;13.420;2023-07-29T03:06:07;19.70;72.20
81222;DHT22;70691;52.492;13.420;2023-07-29T03:08:34;19.70;72.20
81222;DHT22;70691;52.492;13.420;2023-07-29T03:11:06;19.60;72.20
81222;DHT22;70691;52.492;13.420;2023-07-29T03:13:32;19.70;72.00
81222;DHT22;70691;52.492;13.420;2023-07-29T03:16:08;19.60;72.00
81222;DHT22;70691;52.492;13.420;2023-07-29T03:18:34;19.70;72.10
81222;DHT22;70691;52.492;13.420;2023-07-29T03:21:00;19.60;72.20
81222;DHT22;70691;52.492;13.420;2023-07-29T03:23:27;19.70;71.90
81222;DHT22;70691;52.492;13.420;2023-07-29T03:25:55;19.70;71.90
81222;DHT22;70691;52.492;13.420;2023-07-29T03:28:32;19.80;71.80
81222;DHT22;70691;52.492;13.420;2023-07-29T03:30:59;19.70;71.70
81222;DHT22;70691;52.492;13.420;2023-07-29T03:33:25;19.70;71.90
81222;DHT22;70691;52.492;13.420;2023-07-29T03:35:52;19.90;71.00
81222;DHT22;70691;52.492;13.420;2023-07-29T03:38:18;20.00;70.30
81222;DHT22;70691;52.492;13.420;2023-07-29T03:40:44;19.90;70.70
81222;DHT22;70691;52.492;13.420;2023-07-29T03:43:10;19.80;71.10
81222;DHT22;70691;52.492;13.420;2023-07-29T03:45:36;19.70;71.40
81222;DHT22;70691;52.492;13.420;2023-07-29T03:48:02;19.70;71.50
81222;DHT22;70691;52.492;13.420;2023-07-29T03:50:32;19.60;71.60
81222;DHT22;70691;52.492;13.420;2023-07-29T03:52:58;19.70;71.70
81222;DHT22;70691;52.492;13.420;2023-07-29T03:55:24;19.70;71.70
81222;DHT22;70691;52.492;13.420;2023-07-29T03:57:50;19.70;71.70
81222;DHT22;70691;52.492;13.420;2023-07-29T04:00:15;19.70;71.30
81222;DHT22;70691;52.492;13.420;2023-07-29T04:02:42;19.70;71.20
81222;DHT22;70691;52.492;13.420;2023-07-29T04:05:08;19.70;71.20
81222;DHT22;70691;52.492;13.420;2023-07-29T04:07:37;19.70;71.00
81222;DHT22;70691;52.492;13.420;2023-07-29T04:10:03;19.90;70.70
81222;DHT22;70691;52.492;13.420;2023-07-29T04:12:30;20.10;69.50
81222;DHT22;70691;52.492;13.420;2023-07-29T04:14:56;20.10;69.30
81222;DHT22;70691;52.492;13.420;2023-07-29T04:17:21;20.10;69.50
81222;DHT22;70691;52.492;13.420;2023-07-29T04:19:47;20.20;69.30
81222;DHT22;70691;52.492;13.420;2023-07-29T04:22:13;20.20;68.90
81222;DHT22;70691;52.492;13.420;2023-07-29T04:24:39;20.20;69.10
81222;DHT22;70691;52.492;13.420;2023-07-29T04:27:05;20.20;69.10
81222;DHT22;70691;52.492;13.420;2023-07-29T04:29:31;20.20;69.30
81222;DHT22;70691;52.492;13.420;2023-07-29T04:31:56;20.20;69.40
81222;DHT22;70691;52.492;13.420;2023-07-29T04:34:22;20.30;69.10
81222;DHT22;70691;52.492;13.420;2023-07-29T04:36:48;20.50;68.00
81222;DHT22;70691;52.492;13.420;2023-07-29T04:39:14;20.60;67.90
81222;DHT22;70691;52.492;13.420;2023-07-29T04:41:40;20.60;67.80
81222;DHT22;70691;52.492;13.420;2023-07-29T04:44:06;20.60;67.80
81222;DHT22;70691;52.492;13.420;2023-07-29T04:46:33;20.60;67.80
81222;DHT22;70691;52.492;13.420;2023-07-29T04:48:58;20.70;67.80
81222;DHT22;70691;52.492;13.420;2023-07-29T04:51:24;20.70;67.80
81222;DHT22;70691;52.492;13.420;2023-07-29T04:53:50;20.70;67.70
81222;DHT22;70691;52.492;13.420;2023-07-29T04:56:16;20.70;67.80
81222;DHT22;70691;52.492;13.420;2023-07-29T04:58:41;20.80;67.30
81222;DHT22;70691;52.492;13.420;2023-07-29T05:01:07;20.80;67.20
81222;DHT22;70691;52.492;13.420;2023-07-29T05:03:33;20.90;67.30
81222;DHT22;70691;52.492;13.420;2023-07-29T05:05:59;21.00;67.10
81222;DHT22;70691;52.492;13.420;2023-07-29T05:08:28;21.00;66.90
81222;DHT22;70691;52.492;13.420;2023-07-29T05:10:54;21.10;66.50
81222;DHT22;70691;52.492;13.420;2023-07-29T05:13:21;21.00;66.50
81222;DHT22;70691;52.492;13.420;2023-07-29T05:15:48;21.20;66.20
81222;DHT22;70691;52.492;13.420;2023-07-29T05:18:14;21.30;65.80
81222;DHT22;70691;52.492;13.420;2023-07-29T05:20:40;21.30;65.80
81222;DHT22;70691;52.492;13.420;2023-07-29T05:23:06;21.40;65.70
81222;DHT22;70691;52.492;13.420;2023-07-29T05:25:32;21.50;65.50
81222;DHT22;70691;52.492;13.420;2023-07-29T05:28:00;21.70;64.60
81222;DHT22;70691;52.492;13.420;2023-07-29T05:30:26;21.90;65.20
81222;DHT22;70691;52.492;13.420;2023-07-29T05:32:52;22.10;63.30
81222;DHT22;70691;52.492;13.420;2023-07-29T05:35:18;22.30;62.60
81222;DHT22;70691;52.492;13.420;2023-07-29T05:37:43;22.50;61.40
81222;DHT22;70691;52.492;13.420;2023-07-29T05:40:09;22.60;61.20
81222;DHT22;70691;52.492;13.420;2023-07-29T05:42:35;22.50;61.30
81222;DHT22;70691;52.492;13.420;2023-07-29T05:45:01;22.50;61.30
81222;DHT22;70691;52.492;13.420;2023-07-29T05:47:27;22.40;61.80
81222;DHT22;70691;52.492;13.420;2023-07-29T05:49:52;22.30;62.20
81222;DHT22;70691;52.492;13.420;2023-07-29T05:52:18;22.20;62.90
81222;DHT22;70691;52.492;13.420;2023-07-29T05:54:44;22.30;62.70
81222;DHT22;70691;52.492;13.420;2023-07-29T05:57:11;22.20;62.80
81222;DHT22;70691;52.492;13.420;2023-07-29T05:59:37;22.20;62.90
81222;DHT22;70691;52.492;13.420;2023-07-29T06:02:02;22.20;63.10
81222;DHT22;70691;52.492;13.420;2023-07-29T06:04:28;22.20;63.40
81222;DHT22;70691;52.492;13.420;2023-07-29T06:06:54;22.30;63.40
81222;DHT22;70691;52.492;13.420;2023-07-29T06:09:24;22.50;62.70
81222;DHT22;70691;52.492;13.420;2023-07-29T06:11:51;22.60;62.20
81222;DHT22;70691;52.492;13.420;2023-07-29T06:14:16;22.70;61.70
81222;DHT22;70691;52.492;13.420;2023-07-29T06:16:42;22.80;61.80
81222;DHT22;70691;52.492;13.420;2023-07-29T06:19:08;22.90;61.30
81222;DHT22;70691;52.492;13.420;2023-07-29T06:21:34;22.80;62.30
81222;DHT22;70691;52.492;13.420;2023-07-29T06:24:01;22.70;62.00
81222;DHT22;70691;52.492;13.420;2023-07-29T06:26:26;22.60;62.30
81222;DHT22;70691;52.492;13.420;2023-07-29T06:28:52;22.70;62.50
81222;DHT22;70691;52.492;13.420;2023-07-29T06:31:17;22.90;62.20
81222;DHT22;70691;52.492;13.420;2023-07-29T06:33:43;23.00;61.40
81222;DHT22;70691;52.492;13.420;2023-07-29T06:36:09;23.10;61.20
81222;DHT22;70691;52.492;13.420;2023-07-29T06:38:34;23.10;61.10
81222;DHT22;70691;52.492;13.420;2023-07-29T06:41:00;23.10;61.00
81222;DHT22;70691;52.492;13.420;2023-07-29T06:43:28;23.20;61.10
81222;DHT22;70691;52.492;13.420;2023-07-29T06:45:53;23.20;61.10
81222;DHT22;70691;52.492;13.420;2023-07-29T06:48:19;23.20;61.00
81222;DHT22;70691;52.492;13.420;2023-07-29T06:50:45;23.30;61.00
81222;DHT22;70691;52.492;13.420;2023-07-29T06:53:11;23.40;60.80
81222;DHT22;70691;52.492;13.420;2023-07-29T06:55:37;23.50;60.00
81222;DHT22;70691;52.492;13.420;2023-07-29T06:58:03;23.70;59.50
81222;DHT22;70691;52.492;13.420;2023-07-29T07:00:28;23.90;59.30
81222;DHT22;70691;52.492;13.420;2023-07-29T07:02:54;24.00;58.80
81222;DHT22;70691;52.492;13.420;2023-07-29T07:05:19;24.10;58.40
81222;DHT22;70691;52.492;13.420;2023-07-29T07:07:45;24.10;58.20
81222;DHT22;70691;52.492;13.420;2023-07-29T07:10:11;24.20;58.20
81222;DHT22;70691;52.492;13.420;2023-07-29T07:12:36;24.10;58.00
81222;DHT22;70691;52.492;13.420;2023-07-29T07:15:02;24.00;58.50
81222;DHT22;70691;52.492;13.420;2023-07-29T07:17:28;24.10;58.30
81222;DHT22;70691;52.492;13.420;2023-07-29T07:19:54;24.20;58.20
81222;DHT22;70691;52.492;13.420;2023-07-29T07:22:19;24.30;58.10
81222;DHT22;70691;52.492;13.420;2023-07-29T07:24:45;24.50;57.70
81222;DHT22;70691;52.492;13.420;2023-07-29T07:27:10;24.60;57.40
81222;DHT22;70691;52.492;13.420;2023-07-29T07:29:36;24.70;56.80
81222;DHT22;70691;52.492;13.420;2023-07-29T07:32:02;24.80;56.10
81222;DHT22;70691;52.492;13.420;2023-07-29T07:34:27;24.80;56.20
81222;DHT22;70691;52.492;13.420;2023-07-29T07:36:53;24.70;56.40
81222;DHT22;70691;52.492;13.420;2023-07-29T07:39:19;24.70;56.10
81222;DHT22;70691;52.492;13.420;2023-07-29T07:41:44;24.80;55.90
81222;DHT22;70691;52.492;13.420;2023-07-29T07:44:10;25.00;55.70
81222;DHT22;70691;52.492;13.420;2023-07-29T07:46:38;25.10;55.10
81222;DHT22;70691;52.492;13.420;2023-07-29T07:49:03;25.30;54.50
81222;DHT22;70691;52.492;13.420;2023-07-29T07:51:29;25.40;54.40
81222;DHT22;70691;52.492;13.420;2023-07-29T07:53:55;25.30;54.30
81222;DHT22;70691;52.492;13.420;2023-07-29T07:56:21;25.20;54.40
81222;DHT22;70691;52.492;13.420;2023-07-29T07:58:46;25.20;54.30
81222;DHT22;70691;52.492;13.420;2023-07-29T08:01:12;25.30;53.90
81222;DHT22;70691;52.492;13.420;2023-07-29T08:03:38;25.30;54.10
81222;DHT22;70691;52.492;13.420;2023-07-29T08:06:04;25.30;54.20
81222;DHT22;70691;52.492;13.420;2023-07-29T08:08:30;25.40;53.80
81222;DHT22;70691;52.492;13.420;2023-07-29T08:10:56;25.40;53.60
81222;DHT22;70691;52.492;13.420;2023-07-29T08:13:23;25.40;53.60
81222;DHT22;70691;52.492;13.420;2023-07-29T08:15:50;25.50;53.40
81222;DHT22;70691;52.492;13.420;2023-07-29T08:18:17;25.60;53.40
81222;DHT22;70691;52.492;13.420;2023-07-29T08:20:59;25.60;53.10
81222;DHT22;70691;52.492;13.420;2023-07-29T08:23:29;25.60;53.10
81222;DHT22;70691;52.492;13.420;2023-07-29T08:26:05;25.60;52.80
81222;DHT22;70691;52.492;13.420;2023-07-29T08:28:33;25.80;52.60
81222;DHT22;70691;52.492;13.420;2023-07-29T08:30:59;25.90;52.30
81222;DHT22;70691;52.492;13.420;2023-07-29T08:33:25;25.90;52.10
81222;DHT22;70691;52.492;13.420;2023-07-29T08:35:51;26.20;51.50
81222;DHT22;70691;52.492;13.420;2023-07-29T08:38:17;26.30;51.00
81222;DHT22;70691;52.492;13.420;2023-07-29T08:43:29;26.50;50.70
81222;DHT22;70691;52.492;13.420;2023-07-29T08:45:57;26.50;50.70
81222;DHT22;70691;52.492;13.420;2023-07-29T08:48:32;26.50;50.80
81222;DHT22;70691;52.492;13.420;2023-07-29T08:50:59;26.50;50.30
81222;DHT22;70691;52.492;13.420;2023-07-29T08:53:26;26.50;50.60
81222;DHT22;70691;52.492;13.420;2023-07-29T08:55:53;26.40;50.60
81222;DHT22;70691;52.492;13.420;2023-07-29T08:58:21;26.40;50.50
81222;DHT22;70691;52.492;13.420;2023-07-29T09:00:48;26.40;50.60
81222;DHT22;70691;52.492;13.420;2023-07-29T09:03:14;26.50;50.80
81222;DHT22;70691;52.492;13.420;2023-07-29T09:05:39;26.70;50.20
81222;DHT22;70691;52.492;13.420;2023-07-29T09:08:05;26.80;49.80
81222;DHT22;70691;52.492;13.420;2023-07-29T09:10:36;26.90;49.60
81222;DHT22;70691;52.492;13.420;2023-07-29T09:13:02;27.00;49.30
81222;DHT22;70691;52.492;13.420;2023-07-29T09:15:34;27.10;49.10
81222;DHT22;70691;52.492;13.420;2023-07-29T09:18:15;27.10;49.20
81222;DHT22;70691;52.492;13.420;2023-07-29T09:20:41;27.10;48.70
81222;DHT22;70691;52.492;13.420;2023-07-29T09:23:09;27.20;48.40
81222;DHT22;70691;52.492;13.420;2023-07-29T09:25:36;27.20;48.20
81222;DHT22;70691;52.492;13.420;2023-07-29T09:28:10;27.30;48.10
81222;DHT22;70691;52.492;13.420;2023-07-29T09:30:41;27.30;48.20
81222;DHT22;70691;52.492;13.420;2023-07-29T09:33:08;27.40;47.90
81222;DHT22;70691;52.492;13.420;2023-07-29T09:35:36;27.50;47.70
81222;DHT22;70691;52.492;13.420;2023-07-29T09:38:02;27.50;47.70
81222;DHT22;70691;52.492;13.420;2023-07-29T09:40:35;27.50;47.60
81222;DHT22;70691;52.492;13.420;2023-07-29T09:43:01;27.60;47.60
81222;DHT22;70691;52.492;13.420;2023-07-29T09:45:27;27.70;47.00
81222;DHT22;70691;52.492;13.420;2023-07-29T09:47:54;27.70;47.00
81222;DHT22;70691;52.492;13.420;2023-07-29T09:50:25;27.70;47.10
81222;DHT22;70691;52.492;13.420;2023-07-29T09:52:52;27.60;47.00
81222;DHT22;70691;52.492;13.420;2023-07-29T09:55:19;27.50;47.50
81222;DHT22;70691;52.492;13.420;2023-07-29T09:57:46;27.50;48.00
81222;DHT22;70691;52.492;13.420;2023-07-29T10:00:12;27.40;48.20
81222;DHT22;70691;52.492;13.420;2023-07-29T10:02:42;27.40;47.80
81222;DHT22;70691;52.492;13.420;2023-07-29T10:05:09;27.40;48.10
81222;DHT22;70691;52.492;13.420;2023-07-29T10:07:38;27.40;48.40
81222;DHT22;70691;52.492;13.420;2023-07-29T10:10:07;27.40;48.10
81222;DHT22;70691;52.492;13.420;2023-07-29T10:12:34;27.40;47.90
81222;DHT22;70691;52.492;13.420;2023-07-29T10:15:05;27.60;48.00
81222;DHT22;70691;52.492;13.420;2023-07-29T10:17:35;27.70;47.60
81222;DHT22;70691;52.492;13.420;2023-07-29T10:20:03;27.70;47.40
81222;DHT22;70691;52.492;13.420;2023-07-29T10:22:34;27.70;47.30
81222;DHT22;70691;52.492;13.420;2023-07-29T10:25:04;27.70;46.70
81222;DHT22;70691;52.492;13.420;2023-07-29T10:27:33;27.70;47.00
81222;DHT22;70691;52.492;13.420;2023-07-29T10:30:00;27.60;46.60
81222;DHT22;70691;52.492;13.420;2023-07-29T10:32:28;27.60;46.90
81222;DHT22;70691;52.492;13.420;2023-07-29T10:34:54;27.60;46.60
81222;DHT22;70691;52.492;13.420;2023-07-29T10:37:21;27.70;46.50
81222;DHT22;70691;52.492;13.420;2023-07-29T10:39:53;27.70;45.90
81222;DHT22;70691;52.492;13.420;2023-07-29T10:42:19;27.60;45.80
81222;DHT22;70691;52.492;13.420;2023-07-29T10:44:48;27.50;46.10
81222;DHT22;70691;52.492;13.420;2023-07-29T10:49:49;27.40;46.80
81222;DHT22;70691;52.492;13.420;2023-07-29T10:52:27;27.50;47.00
81222;DHT22;70691;52.492;13.420;2023-07-29T10:54:53;27.40;47.10
81222;DHT22;70691;52.492;13.420;2023-07-29T10:57:35;27.40;46.90
81222;DHT22;70691;52.492;13.420;2023-07-29T11:00:02;27.50;46.20
81222;DHT22;70691;52.492;13.420;2023-07-29T11:02:36;27.50;46.30
81222;DHT22;70691;52.492;13.420;2023-07-29T11:05:07;27.50;46.00
81222;DHT22;70691;52.492;13.420;2023-07-29T11:07:51;27.40;45.40
81222;DHT22;70691;52.492;13.420;2023-07-29T11:10:17;27.20;45.00
81222;DHT22;70691;52.492;13.420;2023-07-29T11:12:46;26.90;45.60
81222;DHT22;70691;52.492;13.420;2023-07-29T11:17:49;26.70;46.30
81222;DHT22;70691;52.492;13.420;2023-07-29T11:20:16;26.70;46.00
81222;DHT22;70691;52.492;13.420;2023-07-29T11:22:43;26.50;49.30
81222;DHT22;70691;52.492;13.420;2023-07-29T11:25:11;26.30;53.00
81222;DHT22;70691;52.492;13.420;2023-07-29T11:27:38;25.80;55.40
81222;DHT22;70691;52.492;13.420;2023-07-29T11:30:08;25.30;55.10
81222;DHT22;70691;52.492;13.420;2023-07-29T11:32:35;25.00;56.30
81222;DHT22;70691;52.492;13.420;2023-07-29T11:35:04;24.60;58.30
81222;DHT22;70691;52.492;13.420;2023-07-29T11:37:30;24.30;59.90
81222;DHT22;70691;52.492;13.420;2023-07-29T11:39:56;24.30;60.60
81222;DHT22;70691;52.492;13.420;2023-07-29T11:42:21;24.20;60.30
81222;DHT22;70691;52.492;13.420;2023-07-29T11:44:47;24.20;60.20
81222;DHT22;70691;52.492;13.420;2023-07-29T11:47:13;24.10;60.70
81222;DHT22;70691;52.492;13.420;2023-07-29T11:49:40;24.00;61.10
81222;DHT22;70691;52.492;13.420;2023-07-29T11:52:10;24.00;61.60
81222;DHT22;70691;52.492;13.420;2023-07-29T11:54:37;23.90;62.00
81222;DHT22;70691;52.492;13.420;2023-07-29T11:57:06;24.00;62.40
81222;DHT22;70691;52.492;13.420;2023-07-29T11:59:33;24.00;62.90
81222;DHT22;70691;52.492;13.420;2023-07-29T12:02:01;24.00;62.00
81222;DHT22;70691;52.492;13.420;2023-07-29T12:04:29;24.10;62.10
81222;DHT22;70691;52.492;13.420;2023-07-29T12:06:55;24.10;62.10
81222;DHT22;70691;52.492;13.420;2023-07-29T12:09:21;24.10;61.50
81222;DHT22;70691;52.492;13.420;2023-07-29T12:11:47;24.20;61.60
81222;DHT22;70691;52.492;13.420;2023-07-29T12:14:13;24.20;62.90
81222;DHT22;70691;52.492;13.420;2023-07-29T12:16:43;24.20;61.30
81222;DHT22;70691;52.492;13.420;2023-07-29T12:19:12;24.20;59.70
81222;DHT22;70691;52.492;13.420;2023-07-29T12:21:38;24.20;60.70
81222;DHT22;70691;52.492;13.420;2023-07-29T12:24:04;24.20;60.50
81222;DHT22;70691;52.492;13.420;2023-07-29T12:26:30;24.10;61.50
81222;DHT22;70691;52.492;13.420;2023-07-29T12:28:56;24.10;62.00
81222;DHT22;70691;52.492;13.420;2023-07-29T12:31:33;24.00;62.20
81222;DHT22;70691;52.492;13.420;2023-07-29T12:34:02;24.30;61.40
81222;DHT22;70691;52.492;13.420;2023-07-29T12:36:45;24.20;61.50
81222;DHT22;70691;52.492;13.420;2023-07-29T12:41:48;24.20;62.10
81222;DHT22;70691;52.492;13.420;2023-07-29T12:44:14;24.40;61.40
81222;DHT22;70691;52.492;13.420;2023-07-29T12:46:39;24.50;61.60
81222;DHT22;70691;52.492;13.420;2023-07-29T12:49:05;24.60;61.90
81222;DHT22;70691;52.492;13.420;2023-07-29T12:51:31;24.80;61.00
81222;DHT22;70691;52.492;13.420;2023-07-29T12:53:56;25.10;60.70
81222;DHT22;70691;52.492;13.420;2023-07-29T12:56:22;25.40;59.30
81222;DHT22;70691;52.492;13.420;2023-07-29T12:58:48;25.70;58.40
81222;DHT22;70691;52.492;13.420;2023-07-29T13:01:14;25.90;57.80
81222;DHT22;70691;52.492;13.420;2023-07-29T13:03:47;26.10;56.90
81222;DHT22;70691;52.492;13.420;2023-07-29T13:06:13;26.00;56.80
81222;DHT22;70691;52.492;13.420;2023-07-29T13:08:39;26.00;55.60
81222;DHT22;70691;52.492;13.420;2023-07-29T13:11:05;26.20;55.50
81222;DHT22;70691;52.492;13.420;2023-07-29T13:13:31;26.20;55.40
81222;DHT22;70691;52.492;13.420;2023-07-29T13:15:57;26.20;55.10
81222;DHT22;70691;52.492;13.420;2023-07-29T13:18:23;26.10;55.30
81222;DHT22;70691;52.492;13.420;2023-07-29T13:20:49;26.20;55.00
81222;DHT22;70691;52.492;13.420;2023-07-29T13:23:15;26.10;54.70
81222;DHT22;70691;52.492;13.420;2023-07-29T13:25:41;26.10;55.00
81222;DHT22;70691;52.492;13.420;2023-07-29T13:28:09;25.90;55.30
81222;DHT22;70691;52.492;13.420;2023-07-29T13:30:35;25.70;55.40
81222;DHT22;70691;52.492;13.420;2023-07-29T13:33:00;25.70;55.50
81222;DHT22;70691;52.492;13.420;2023-07-29T13:35:27;25.90;55.40
81222;DHT22;70691;52.492;13.420;2023-07-29T13:37:52;25.90;55.10
81222;DHT22;70691;52.492;13.420;2023-07-29T13:40:18;26.10;54.20
81222;DHT22;70691;52.492;13.420;2023-07-29T13:42:44;26.30;54.40
81222;DHT22;70691;52.492;13.420;2023-07-29T13:45:09;26.60;53.90
81222;DHT22;70691;52.492;13.420;2023-07-29T13:47:36;26.80;52.30
81222;DHT22;70691;52.492;13.420;2023-07-29T13:50:02;27.00;51.90
81222;DHT22;70691;52.492;13.420;2023-07-29T13:52:28;27.00;48.10
81222;DHT22;70691;52.492;13.420;2023-07-29T13:54:53;26.80;49.30
81222;DHT22;70691;52.492;13.420;2023-07-29T13:57:22;26.80;50.70
81222;DHT22;70691;52.492;13.420;2023-07-29T13:59:48;26.90;49.90
81222;DHT22;70691;52.492;13.420;2023-07-29T14:02:13;27.00;49.90
81222;DHT22;70691;52.492;13.420;2023-07-29T14:04:39;27.00;48.90
81222;DHT22;70691;52.492;13.420;2023-07-29T14:07:05;27.10;49.10
81222;DHT22;70691;52.492;13.420;2023-07-29T14:09:30;27.20;49.40
81222;DHT22;70691;52.492;13.420;2023-07-29T14:11:56;27.30;49.10
81222;DHT22;70691;52.492;13.420;2023-07-29T14:14:22;27.50;48.50
81222;DHT22;70691;52.492;13.420;2023-07-29T14:16:47;27.40;48.30
81222;DHT22;70691;52.492;13.420;2023-07-29T14:19:14;27.30;49.10
81222;DHT22;70691;52.492;13.420;2023-07-29T14:21:41;27.40;49.00
81222;DHT22;70691;52.492;13.420;2023-07-29T14:24:07;27.30;48.30
81222;DHT22;70691;52.492;13.420;2023-07-29T14:26:32;27.20;48.60
81222;DHT22;70691;52.492;13.420;2023-07-29T14:28:58;27.30;47.80
81222;DHT22;70691;52.492;13.420;2023-07-29T14:31:24;27.00;48.10
81222;DHT22;70691;52.492;13.420;2023-07-29T14:33:49;26.80;49.80
81222;DHT22;70691;52.492;13.420;2023-07-29T14:36:16;26.80;49.50
81222;DHT22;70691;52.492;13.420;2023-07-29T14:38:41;26.70;49.20
81222;DHT22;70691;52.492;13.420;2023-07-29T14:41:08;26.70;50.40
81222;DHT22;70691;52.492;13.420;2023-07-29T14:43:34;26.80;49.60
81222;DHT22;70691;52.492;13.420;2023-07-29T14:45:59;26.80;50.10
81222;DHT22;70691;52.492;13.420;2023-07-29T14:48:25;26.90;49.90
81222;DHT22;70691;52.492;13.420;2023-07-29T14:50:51;27.00;49.80
81222;DHT22;70691;52.492;13.420;2023-07-29T14:53:17;27.10;49.40
81222;DHT22;70691;52.492;13.420;2023-07-29T14:55:42;27.10;49.20
81222;DHT22;70691;52.492;13.420;2023-07-29T14:58:08;27.00;49.50
81222;DHT22;70691;52.492;13.420;2023-07-29T15:00:34;26.80;49.60
81222;DHT22;70691;52.492;13.420;2023-07-29T15:03:00;26.70;49.50
81222;DHT22;70691;52.492;13.420;2023-07-29T15:05:26;26.50;49.40
81222;DHT22;70691;52.492;13.420;2023-07-29T15:07:52;26.40;50.00
81222;DHT22;70691;52.492;13.420;2023-07-29T15:10:18;26.30;50.60
81222;DHT22;70691;52.492;13.420;2023-07-29T15:12:44;26.10;51.20
81222;DHT22;70691;52.492;13.420;2023-07-29T15:15:11;26.00;51.20
81222;DHT22;70691;52.492;13.420;2023-07-29T15:17:38;26.00;51.50
81222;DHT22;70691;52.492;13.420;2023-07-29T15:20:04;26.00;51.80
81222;DHT22;70691;52.492;13.420;2023-07-29T15:22:30;25.90;51.90
81222;DHT22;70691;52.492;13.420;2023-07-29T15:24:58;25.90;50.70
81222;DHT22;70691;52.492;13.420;2023-07-29T15:27:30;25.90;51.20
81222;DHT22;70691;52.492;13.420;2023-07-29T15:29:56;25.80;51.10
81222;DHT22;70691;52.492;13.420;2023-07-29T15:32:22;25.80;50.60
81222;DHT22;70691;52.492;13.420;2023-07-29T15:34:48;25.70;52.00